RYR1LB EGSS-EDFH
Flight info
| Callsign | RYR1LB |
|---|---|
| Flight time | N/A |
| Altitude | 35000 |
| Route | CLN M84 KONAN UL607 SPI/N0390F230 Q50 ARCKY L607 EMGOD |
| Aircraft | B738/M-SDE2E3FGHIRWXY/LB1 |
Departure
| Time | 2026-05-04 11:27 |
|---|---|
| Airport | London Stansted Airport (EGSS) |
Arrival
| Time | N/A |
|---|---|
| Airport | Frankfurt-Hahn Airport (EDFH) |
| Time | Latitude | Longitude | Altitude | Speed | Heading |
|---|---|---|---|---|---|
| 2026-05-04 10:59 | 51.88537 | 0.24561 | 350 ft | 0 kts | 43° |
| 2026-05-04 11:13 | 51.88529 | 0.24550 | 360 ft | 3 kts | 39° |
| 2026-05-04 11:13 | 51.88516 | 0.24532 | 359 ft | 2 kts | 40° |
| 2026-05-04 11:13 | 51.88501 | 0.24517 | 352 ft | 3 kts | 5° |
| 2026-05-04 11:14 | 51.88495 | 0.24516 | 356 ft | 3 kts | 351° |
| 2026-05-04 11:14 | 51.88471 | 0.24537 | 360 ft | 0 kts | 312° |
| 2026-05-04 11:19 | 51.88477 | 0.24527 | 354 ft | 0 kts | 312° |
| 2026-05-04 11:20 | 51.88491 | 0.24501 | 358 ft | 7 kts | 312° |
| 2026-05-04 11:22 | 51.88114 | 0.23681 | 348 ft | 7 kts | 223° |
| 2026-05-04 11:22 | 51.88076 | 0.23623 | 346 ft | 7 kts | 223° |
| 2026-05-04 11:23 | 51.88038 | 0.23567 | 358 ft | 7 kts | 223° |
| 2026-05-04 11:23 | 51.88003 | 0.23513 | 345 ft | 7 kts | 223° |
| 2026-05-04 11:24 | 51.87727 | 0.22804 | 350 ft | 23 kts | 223° |
| 2026-05-04 11:25 | 51.87602 | 0.22612 | 341 ft | 27 kts | 224° |
| 2026-05-04 11:25 | 51.87532 | 0.22437 | 336 ft | 18 kts | 276° |
| 2026-05-04 11:25 | 51.87553 | 0.22369 | 340 ft | 3 kts | 310° |
| 2026-05-04 11:26 | 51.87607 | 0.22274 | 335 ft | 1 kts | 336° |
| 2026-05-04 11:27 | 51.91032 | 0.27784 | 2950 ft | 160 kts | 54° |
| 2026-05-04 11:28 | 51.91324 | 0.29549 | 3474 ft | 185 kts | 99° |
| 2026-05-04 11:28 | 51.90834 | 0.31769 | 3622 ft | 229 kts | 113° |
| 2026-05-04 11:28 | 51.90245 | 0.34346 | 3998 ft | 258 kts | 110° |
| 2026-05-04 11:28 | 51.89662 | 0.37243 | 4501 ft | 282 kts | 108° |
| 2026-05-04 11:29 | 51.89052 | 0.40393 | 5015 ft | 306 kts | 109° |